sensor_id;sensor_type;location;lat;lon;timestamp;P1;durP1;ratioP1;P2;durP2;ratioP2
61741;SDS011;47650;49.848;9.620;2023-08-06T00:00:42;20.90;;;18.77;;
61741;SDS011;47650;49.848;9.620;2023-08-06T00:03:07;33.40;;;28.58;;
61741;SDS011;47650;49.848;9.620;2023-08-06T00:05:34;31.35;;;26.65;;
61741;SDS011;47650;49.848;9.620;2023-08-06T00:07:59;24.90;;;22.25;;
61741;SDS011;47650;49.848;9.620;2023-08-06T00:10:26;18.27;;;16.63;;
61741;SDS011;47650;49.848;9.620;2023-08-06T00:12:51;22.23;;;19.88;;
61741;SDS011;47650;49.848;9.620;2023-08-06T00:15:18;15.02;;;13.50;;
61741;SDS011;47650;49.848;9.620;2023-08-06T00:17:43;13.18;;;12.07;;
61741;SDS011;47650;49.848;9.620;2023-08-06T00:20:09;13.93;;;12.63;;
61741;SDS011;47650;49.848;9.620;2023-08-06T00:22:38;18.73;;;16.83;;
61741;SDS011;47650;49.848;9.620;2023-08-06T00:25:03;15.30;;;13.80;;
61741;SDS011;47650;49.848;9.620;2023-08-06T00:27:32;19.45;;;16.88;;
61741;SDS011;47650;49.848;9.620;2023-08-06T00:30:00;16.00;;;14.38;;
61741;SDS011;47650;49.848;9.620;2023-08-06T00:32:25;15.68;;;14.18;;
61741;SDS011;47650;49.848;9.620;2023-08-06T00:34:52;16.13;;;14.63;;
61741;SDS011;47650;49.848;9.620;2023-08-06T00:37:19;17.88;;;16.17;;
61741;SDS011;47650;49.848;9.620;2023-08-06T00:39:46;15.82;;;14.35;;
61741;SDS011;47650;49.848;9.620;2023-08-06T00:42:12;14.55;;;13.18;;
61741;SDS011;47650;49.848;9.620;2023-08-06T00:44:43;14.85;;;13.43;;
61741;SDS011;47650;49.848;9.620;2023-08-06T00:47:11;15.85;;;14.35;;
61741;SDS011;47650;49.848;9.620;2023-08-06T00:49:38;14.02;;;12.70;;
61741;SDS011;47650;49.848;9.620;2023-08-06T00:52:07;12.55;;;11.35;;
61741;SDS011;47650;49.848;9.620;2023-08-06T00:54:33;20.48;;;13.77;;
61741;SDS011;47650;49.848;9.620;2023-08-06T00:57:01;14.40;;;12.90;;
61741;SDS011;47650;49.848;9.620;2023-08-06T00:59:29;12.15;;;10.93;;
61741;SDS011;47650;49.848;9.620;2023-08-06T01:01:57;16.15;;;14.73;;
61741;SDS011;47650;49.848;9.620;2023-08-06T01:04:23;19.02;;;17.08;;
61741;SDS011;47650;49.848;9.620;2023-08-06T01:06:49;13.88;;;12.38;;
61741;SDS011;47650;49.848;9.620;2023-08-06T01:09:45;19.88;;;17.48;;
61741;SDS011;47650;49.848;9.620;2023-08-06T01:12:30;20.48;;;18.40;;
61741;SDS011;47650;49.848;9.620;2023-08-06T01:17:45;19.10;;;17.50;;
61741;SDS011;47650;49.848;9.620;2023-08-06T01:20:15;20.88;;;18.70;;
61741;SDS011;47650;49.848;9.620;2023-08-06T01:22:48;18.05;;;16.35;;
61741;SDS011;47650;49.848;9.620;2023-08-06T01:25:15;18.80;;;17.13;;
61741;SDS011;47650;49.848;9.620;2023-08-06T01:27:45;15.60;;;14.20;;
61741;SDS011;47650;49.848;9.620;2023-08-06T01:30:15;16.90;;;15.30;;
61741;SDS011;47650;49.848;9.620;2023-08-06T01:32:44;20.80;;;18.25;;
61741;SDS011;47650;49.848;9.620;2023-08-06T01:35:11;19.05;;;17.17;;
61741;SDS011;47650;49.848;9.620;2023-08-06T01:37:40;34.38;;;25.83;;
61741;SDS011;47650;49.848;9.620;2023-08-06T01:40:09;24.65;;;21.60;;
61741;SDS011;47650;49.848;9.620;2023-08-06T01:42:36;22.45;;;20.13;;
61741;SDS011;47650;49.848;9.620;2023-08-06T01:45:02;34.03;;;25.35;;
61741;SDS011;47650;49.848;9.620;2023-08-06T01:47:28;21.02;;;18.85;;
61741;SDS011;47650;49.848;9.620;2023-08-06T01:49:55;29.15;;;22.95;;
61741;SDS011;47650;49.848;9.620;2023-08-06T01:52:22;21.30;;;19.00;;
61741;SDS011;47650;49.848;9.620;2023-08-06T01:54:47;37.47;;;26.40;;
61741;SDS011;47650;49.848;9.620;2023-08-06T01:57:12;26.33;;;19.17;;
61741;SDS011;47650;49.848;9.620;2023-08-06T01:59:39;42.70;;;28.15;;
61741;SDS011;47650;49.848;9.620;2023-08-06T02:02:05;21.15;;;19.05;;
61741;SDS011;47650;49.848;9.620;2023-08-06T02:04:30;26.42;;;22.42;;
61741;SDS011;47650;49.848;9.620;2023-08-06T02:06:57;22.63;;;19.42;;
61741;SDS011;47650;49.848;9.620;2023-08-06T02:09:22;36.40;;;27.20;;
61741;SDS011;47650;49.848;9.620;2023-08-06T02:11:49;26.45;;;23.00;;
61741;SDS011;47650;49.848;9.620;2023-08-06T02:14:21;31.02;;;23.80;;
61741;SDS011;47650;49.848;9.620;2023-08-06T02:16:49;23.05;;;20.55;;
61741;SDS011;47650;49.848;9.620;2023-08-06T02:19:17;20.90;;;18.63;;
61741;SDS011;47650;49.848;9.620;2023-08-06T02:21:43;17.92;;;16.13;;
61741;SDS011;47650;49.848;9.620;2023-08-06T02:24:09;34.13;;;25.08;;
61741;SDS011;47650;49.848;9.620;2023-08-06T02:26:34;23.48;;;20.15;;
61741;SDS011;47650;49.848;9.620;2023-08-06T02:28:59;29.88;;;23.67;;
61741;SDS011;47650;49.848;9.620;2023-08-06T02:31:27;26.17;;;21.92;;
61741;SDS011;47650;49.848;9.620;2023-08-06T02:33:53;33.40;;;25.85;;
61741;SDS011;47650;49.848;9.620;2023-08-06T02:36:19;15.93;;;14.30;;
61741;SDS011;47650;49.848;9.620;2023-08-06T02:38:44;19.02;;;16.75;;
61741;SDS011;47650;49.848;9.620;2023-08-06T02:41:11;113.15;;;19.42;;
61741;SDS011;47650;49.848;9.620;2023-08-06T02:43:37;93.18;;;19.88;;
61741;SDS011;47650;49.848;9.620;2023-08-06T02:46:02;16.08;;;13.45;;
61741;SDS011;47650;49.848;9.620;2023-08-06T02:48:28;12.60;;;11.38;;
61741;SDS011;47650;49.848;9.620;2023-08-06T02:50:56;11.65;;;10.55;;
61741;SDS011;47650;49.848;9.620;2023-08-06T02:53:24;11.27;;;10.23;;
61741;SDS011;47650;49.848;9.620;2023-08-06T02:55:49;14.75;;;13.05;;
61741;SDS011;47650;49.848;9.620;2023-08-06T02:58:15;17.17;;;15.13;;
61741;SDS011;47650;49.848;9.620;2023-08-06T03:00:43;12.68;;;11.32;;
61741;SDS011;47650;49.848;9.620;2023-08-06T03:03:09;24.40;;;19.67;;
61741;SDS011;47650;49.848;9.620;2023-08-06T03:05:35;17.30;;;14.55;;
61741;SDS011;47650;49.848;9.620;2023-08-06T03:08:00;12.10;;;10.88;;
61741;SDS011;47650;49.848;9.620;2023-08-06T03:10:27;14.90;;;13.43;;
61741;SDS011;47650;49.848;9.620;2023-08-06T03:12:53;10.65;;;9.48;;
61741;SDS011;47650;49.848;9.620;2023-08-06T03:15:19;13.77;;;11.95;;
61741;SDS011;47650;49.848;9.620;2023-08-06T03:17:45;22.95;;;17.88;;
61741;SDS011;47650;49.848;9.620;2023-08-06T03:20:10;10.15;;;9.15;;
61741;SDS011;47650;49.848;9.620;2023-08-06T03:22:41;34.20;;;24.27;;
61741;SDS011;47650;49.848;9.620;2023-08-06T03:25:07;11.55;;;10.27;;
61741;SDS011;47650;49.848;9.620;2023-08-06T03:27:32;28.20;;;25.33;;
61741;SDS011;47650;49.848;9.620;2023-08-06T03:30:03;27.77;;;20.67;;
61741;SDS011;47650;49.848;9.620;2023-08-06T03:32:29;10.30;;;9.20;;
61741;SDS011;47650;49.848;9.620;2023-08-06T03:34:54;18.13;;;10.68;;
61741;SDS011;47650;49.848;9.620;2023-08-06T03:37:20;12.13;;;10.93;;
61741;SDS011;47650;49.848;9.620;2023-08-06T03:39:45;13.10;;;11.07;;
61741;SDS011;47650;49.848;9.620;2023-08-06T03:42:10;24.90;;;17.98;;
61741;SDS011;47650;49.848;9.620;2023-08-06T03:44:35;21.02;;;17.27;;
61741;SDS011;47650;49.848;9.620;2023-08-06T03:47:01;12.55;;;11.35;;
61741;SDS011;47650;49.848;9.620;2023-08-06T03:49:28;21.23;;;17.83;;
61741;SDS011;47650;49.848;9.620;2023-08-06T03:51:53;15.02;;;13.43;;
61741;SDS011;47650;49.848;9.620;2023-08-06T03:54:20;22.50;;;18.33;;
61741;SDS011;47650;49.848;9.620;2023-08-06T03:56:45;19.63;;;16.38;;
61741;SDS011;47650;49.848;9.620;2023-08-06T03:59:10;13.45;;;11.90;;
61741;SDS011;47650;49.848;9.620;2023-08-06T04:01:36;12.32;;;11.27;;
61741;SDS011;47650;49.848;9.620;2023-08-06T04:04:01;15.23;;;13.70;;
61741;SDS011;47650;49.848;9.620;2023-08-06T04:06:26;20.25;;;17.10;;
61741;SDS011;47650;49.848;9.620;2023-08-06T04:08:52;16.48;;;14.82;;
61741;SDS011;47650;49.848;9.620;2023-08-06T04:11:17;27.30;;;21.25;;
61741;SDS011;47650;49.848;9.620;2023-08-06T04:13:43;22.15;;;16.50;;
61741;SDS011;47650;49.848;9.620;2023-08-06T04:16:09;9.68;;;8.80;;
61741;SDS011;47650;49.848;9.620;2023-08-06T04:18:34;11.13;;;10.05;;
61741;SDS011;47650;49.848;9.620;2023-08-06T04:21:01;9.70;;;8.68;;
61741;SDS011;47650;49.848;9.620;2023-08-06T04:23:27;16.27;;;13.25;;
61741;SDS011;47650;49.848;9.620;2023-08-06T04:25:52;26.10;;;21.20;;
61741;SDS011;47650;49.848;9.620;2023-08-06T04:28:21;17.98;;;15.40;;
61741;SDS011;47650;49.848;9.620;2023-08-06T04:30:49;10.18;;;9.07;;
61741;SDS011;47650;49.848;9.620;2023-08-06T04:33:14;11.27;;;10.27;;
61741;SDS011;47650;49.848;9.620;2023-08-06T04:35:41;10.90;;;9.43;;
61741;SDS011;47650;49.848;9.620;2023-08-06T04:38:07;12.45;;;10.52;;
61741;SDS011;47650;49.848;9.620;2023-08-06T04:40:33;11.45;;;10.35;;
61741;SDS011;47650;49.848;9.620;2023-08-06T04:42:59;15.88;;;14.27;;
61741;SDS011;47650;49.848;9.620;2023-08-06T04:45:25;13.85;;;12.18;;
61741;SDS011;47650;49.848;9.620;2023-08-06T04:47:51;13.02;;;8.52;;
61741;SDS011;47650;49.848;9.620;2023-08-06T04:50:17;9.90;;;8.50;;
61741;SDS011;47650;49.848;9.620;2023-08-06T04:52:45;11.30;;;9.98;;
61741;SDS011;47650;49.848;9.620;2023-08-06T04:55:10;10.30;;;8.93;;
61741;SDS011;47650;49.848;9.620;2023-08-06T04:57:37;8.98;;;8.18;;
61741;SDS011;47650;49.848;9.620;2023-08-06T05:00:03;9.18;;;8.27;;
61741;SDS011;47650;49.848;9.620;2023-08-06T05:02:29;9.45;;;8.45;;
61741;SDS011;47650;49.848;9.620;2023-08-06T05:04:58;9.73;;;8.57;;
61741;SDS011;47650;49.848;9.620;2023-08-06T05:07:24;9.93;;;9.02;;
61741;SDS011;47650;49.848;9.620;2023-08-06T05:09:49;8.93;;;8.02;;
61741;SDS011;47650;49.848;9.620;2023-08-06T05:12:14;10.18;;;8.85;;
61741;SDS011;47650;49.848;9.620;2023-08-06T05:14:39;9.02;;;7.70;;
61741;SDS011;47650;49.848;9.620;2023-08-06T05:17:06;10.80;;;9.15;;
61741;SDS011;47650;49.848;9.620;2023-08-06T05:19:31;9.50;;;8.60;;
61741;SDS011;47650;49.848;9.620;2023-08-06T05:21:57;13.73;;;8.98;;
61741;SDS011;47650;49.848;9.620;2023-08-06T05:24:22;8.80;;;8.00;;
61741;SDS011;47650;49.848;9.620;2023-08-06T05:26:47;8.25;;;7.25;;
61741;SDS011;47650;49.848;9.620;2023-08-06T05:29:13;6.97;;;6.30;;
61741;SDS011;47650;49.848;9.620;2023-08-06T05:31:38;6.88;;;6.18;;
61741;SDS011;47650;49.848;9.620;2023-08-06T05:34:04;7.95;;;6.65;;
61741;SDS011;47650;49.848;9.620;2023-08-06T05:36:30;6.88;;;6.13;;
61741;SDS011;47650;49.848;9.620;2023-08-06T05:38:55;6.80;;;6.10;;
61741;SDS011;47650;49.848;9.620;2023-08-06T05:41:20;7.68;;;6.97;;
61741;SDS011;47650;49.848;9.620;2023-08-06T05:43:45;8.45;;;7.40;;
61741;SDS011;47650;49.848;9.620;2023-08-06T05:46:11;7.70;;;6.78;;
61741;SDS011;47650;49.848;9.620;2023-08-06T05:48:36;7.47;;;6.28;;
61741;SDS011;47650;49.848;9.620;2023-08-06T05:51:01;5.85;;;5.00;;
61741;SDS011;47650;49.848;9.620;2023-08-06T05:53:27;6.97;;;4.80;;
61741;SDS011;47650;49.848;9.620;2023-08-06T05:55:52;5.93;;;5.30;;
61741;SDS011;47650;49.848;9.620;2023-08-06T05:58:17;7.60;;;5.68;;
61741;SDS011;47650;49.848;9.620;2023-08-06T06:00:46;7.97;;;5.05;;
61741;SDS011;47650;49.848;9.620;2023-08-06T06:03:13;7.72;;;4.75;;
61741;SDS011;47650;49.848;9.620;2023-08-06T06:05:40;6.22;;;4.90;;
61741;SDS011;47650;49.848;9.620;2023-08-06T06:08:07;7.13;;;5.35;;
61741;SDS011;47650;49.848;9.620;2023-08-06T06:10:33;6.18;;;5.57;;
61741;SDS011;47650;49.848;9.620;2023-08-06T06:12:58;7.05;;;5.50;;
61741;SDS011;47650;49.848;9.620;2023-08-06T06:15:23;8.27;;;5.30;;
61741;SDS011;47650;49.848;9.620;2023-08-06T06:17:55;6.40;;;4.90;;
61741;SDS011;47650;49.848;9.620;2023-08-06T06:20:21;6.32;;;4.95;;
61741;SDS011;47650;49.848;9.620;2023-08-06T06:22:46;8.60;;;4.85;;
61741;SDS011;47650;49.848;9.620;2023-08-06T06:25:12;6.85;;;6.13;;
61741;SDS011;47650;49.848;9.620;2023-08-06T06:27:41;18.25;;;7.93;;
61741;SDS011;47650;49.848;9.620;2023-08-06T06:30:08;9.48;;;7.35;;
61741;SDS011;47650;49.848;9.620;2023-08-06T06:32:33;11.73;;;7.60;;
61741;SDS011;47650;49.848;9.620;2023-08-06T06:34:59;10.07;;;7.35;;
61741;SDS011;47650;49.848;9.620;2023-08-06T06:37:26;12.32;;;7.03;;
61741;SDS011;47650;49.848;9.620;2023-08-06T06:39:51;13.00;;;7.85;;
61741;SDS011;47650;49.848;9.620;2023-08-06T06:42:16;8.85;;;6.93;;
61741;SDS011;47650;49.848;9.620;2023-08-06T06:44:42;8.27;;;6.95;;
61741;SDS011;47650;49.848;9.620;2023-08-06T06:47:07;10.02;;;7.65;;
61741;SDS011;47650;49.848;9.620;2023-08-06T06:49:32;9.52;;;8.52;;
61741;SDS011;47650;49.848;9.620;2023-08-06T06:51:58;8.25;;;7.18;;
61741;SDS011;47650;49.848;9.620;2023-08-06T06:54:28;9.70;;;7.30;;
61741;SDS011;47650;49.848;9.620;2023-08-06T06:56:54;11.27;;;8.02;;
61741;SDS011;47650;49.848;9.620;2023-08-06T06:59:19;10.80;;;6.82;;
61741;SDS011;47650;49.848;9.620;2023-08-06T07:01:45;9.55;;;7.15;;
61741;SDS011;47650;49.848;9.620;2023-08-06T07:04:11;11.85;;;6.85;;
61741;SDS011;47650;49.848;9.620;2023-08-06T07:06:38;8.55;;;7.32;;
61741;SDS011;47650;49.848;9.620;2023-08-06T07:09:03;7.60;;;6.55;;
61741;SDS011;47650;49.848;9.620;2023-08-06T07:11:29;8.18;;;7.38;;
61741;SDS011;47650;49.848;9.620;2023-08-06T07:13:57;8.98;;;6.18;;
61741;SDS011;47650;49.848;9.620;2023-08-06T07:16:26;4.78;;;3.55;;
61741;SDS011;47650;49.848;9.620;2023-08-06T07:18:53;3.00;;;2.80;;
61741;SDS011;47650;49.848;9.620;2023-08-06T07:21:18;3.83;;;2.63;;
61741;SDS011;47650;49.848;9.620;2023-08-06T07:23:44;2.60;;;2.40;;
61741;SDS011;47650;49.848;9.620;2023-08-06T07:26:11;2.67;;;2.40;;
61741;SDS011;47650;49.848;9.620;2023-08-06T07:28:38;3.38;;;1.73;;
61741;SDS011;47650;49.848;9.620;2023-08-06T07:31:03;2.10;;;1.80;;
61741;SDS011;47650;49.848;9.620;2023-08-06T07:33:28;2.58;;;2.33;;
61741;SDS011;47650;49.848;9.620;2023-08-06T07:35:54;2.58;;;2.25;;
61741;SDS011;47650;49.848;9.620;2023-08-06T07:38:19;3.65;;;2.10;;
61741;SDS011;47650;49.848;9.620;2023-08-06T07:40:45;3.10;;;2.38;;
61741;SDS011;47650;49.848;9.620;2023-08-06T07:43:10;2.95;;;2.55;;
61741;SDS011;47650;49.848;9.620;2023-08-06T07:45:36;2.53;;;2.33;;
61741;SDS011;47650;49.848;9.620;2023-08-06T07:48:02;2.83;;;1.80;;
61741;SDS011;47650;49.848;9.620;2023-08-06T07:50:28;2.20;;;2.10;;
61741;SDS011;47650;49.848;9.620;2023-08-06T07:52:54;2.03;;;1.90;;
61741;SDS011;47650;49.848;9.620;2023-08-06T07:55:19;1.70;;;1.60;;
61741;SDS011;47650;49.848;9.620;2023-08-06T07:57:45;2.33;;;2.22;;
61741;SDS011;47650;49.848;9.620;2023-08-06T08:00:11;3.60;;;2.10;;
61741;SDS011;47650;49.848;9.620;2023-08-06T08:02:36;2.13;;;1.92;;
61741;SDS011;47650;49.848;9.620;2023-08-06T08:05:02;1.90;;;1.80;;
61741;SDS011;47650;49.848;9.620;2023-08-06T08:07:28;2.47;;;2.22;;
61741;SDS011;47650;49.848;9.620;2023-08-06T08:09:55;4.75;;;2.42;;
61741;SDS011;47650;49.848;9.620;2023-08-06T08:12:21;2.22;;;1.95;;
61741;SDS011;47650;49.848;9.620;2023-08-06T08:14:46;2.30;;;2.20;;
61741;SDS011;47650;49.848;9.620;2023-08-06T08:17:12;2.58;;;1.95;;
61741;SDS011;47650;49.848;9.620;2023-08-06T08:19:39;1.88;;;1.77;;
61741;SDS011;47650;49.848;9.620;2023-08-06T08:22:07;2.08;;;1.92;;
61741;SDS011;47650;49.848;9.620;2023-08-06T08:24:32;2.05;;;1.85;;
61741;SDS011;47650;49.848;9.620;2023-08-06T08:26:58;2.05;;;1.73;;
61741;SDS011;47650;49.848;9.620;2023-08-06T08:29:24;1.83;;;1.50;;
61741;SDS011;47650;49.848;9.620;2023-08-06T08:31:50;1.98;;;1.85;;
61741;SDS011;47650;49.848;9.620;2023-08-06T08:34:16;2.15;;;1.80;;
61741;SDS011;47650;49.848;9.620;2023-08-06T08:36:42;1.00;;;0.90;;
61741;SDS011;47650;49.848;9.620;2023-08-06T08:39:11;0.82;;;0.80;;
61741;SDS011;47650;49.848;9.620;2023-08-06T08:41:38;0.73;;;0.73;;
61741;SDS011;47650;49.848;9.620;2023-08-06T08:44:04;1.85;;;0.80;;
61741;SDS011;47650;49.848;9.620;2023-08-06T08:46:36;0.68;;;0.68;;
61741;SDS011;47650;49.848;9.620;2023-08-06T08:49:06;0.63;;;0.63;;
61741;SDS011;47650;49.848;9.620;2023-08-06T08:51:34;1.15;;;0.70;;
61741;SDS011;47650;49.848;9.620;2023-08-06T08:54:06;0.80;;;0.60;;
61741;SDS011;47650;49.848;9.620;2023-08-06T08:56:33;0.88;;;0.88;;
61741;SDS011;47650;49.848;9.620;2023-08-06T08:59:00;0.93;;;0.70;;
61741;SDS011;47650;49.848;9.620;2023-08-06T09:01:26;0.60;;;0.60;;
61741;SDS011;47650;49.848;9.620;2023-08-06T09:03:53;0.60;;;0.60;;
61741;SDS011;47650;49.848;9.620;2023-08-06T09:06:23;0.77;;;0.77;;
61741;SDS011;47650;49.848;9.620;2023-08-06T09:09:01;1.17;;;0.98;;
61741;SDS011;47650;49.848;9.620;2023-08-06T09:11:31;0.60;;;0.60;;
61741;SDS011;47650;49.848;9.620;2023-08-06T09:16:32;0.77;;;0.70;;
61741;SDS011;47650;49.848;9.620;2023-08-06T09:19:06;0.70;;;0.70;;
61741;SDS011;47650;49.848;9.620;2023-08-06T09:23:58;0.77;;;0.77;;
61741;SDS011;47650;49.848;9.620;2023-08-06T09:26:24;0.70;;;0.70;;
61741;SDS011;47650;49.848;9.620;2023-08-06T09:28:52;0.82;;;0.77;;
61741;SDS011;47650;49.848;9.620;2023-08-06T09:31:17;1.25;;;0.88;;
61741;SDS011;47650;49.848;9.620;2023-08-06T09:33:43;0.85;;;0.85;;
61741;SDS011;47650;49.848;9.620;2023-08-06T09:36:11;0.98;;;0.80;;
61741;SDS011;47650;49.848;9.620;2023-08-06T09:38:40;1.00;;;1.00;;
61741;SDS011;47650;49.848;9.620;2023-08-06T09:41:07;1.00;;;1.00;;
61741;SDS011;47650;49.848;9.620;2023-08-06T09:43:40;1.25;;;1.23;;
61741;SDS011;47650;49.848;9.620;2023-08-06T09:46:13;1.58;;;1.20;;
61741;SDS011;47650;49.848;9.620;2023-08-06T09:48:39;0.80;;;0.80;;
61741;SDS011;47650;49.848;9.620;2023-08-06T09:51:06;0.95;;;0.95;;
61741;SDS011;47650;49.848;9.620;2023-08-06T09:53:33;3.08;;;2.92;;
61741;SDS011;47650;49.848;9.620;2023-08-06T09:56:00;1.05;;;0.88;;
61741;SDS011;47650;49.848;9.620;2023-08-06T09:58:26;0.75;;;0.70;;
61741;SDS011;47650;49.848;9.620;2023-08-06T10:00:52;1.20;;;0.70;;
61741;SDS011;47650;49.848;9.620;2023-08-06T10:03:18;0.70;;;0.70;;
61741;SDS011;47650;49.848;9.620;2023-08-06T10:05:44;0.80;;;0.80;;
61741;SDS011;47650;49.848;9.620;2023-08-06T10:08:09;2.10;;;1.00;;
61741;SDS011;47650;49.848;9.620;2023-08-06T10:10:36;0.70;;;0.70;;
61741;SDS011;47650;49.848;9.620;2023-08-06T10:13:01;1.42;;;1.20;;
61741;SDS011;47650;49.848;9.620;2023-08-06T10:15:31;0.90;;;0.90;;
61741;SDS011;47650;49.848;9.620;2023-08-06T10:17:57;0.80;;;0.80;;
61741;SDS011;47650;49.848;9.620;2023-08-06T10:20:26;0.98;;;0.98;;
61741;SDS011;47650;49.848;9.620;2023-08-06T10:23:03;1.17;;;1.13;;
61741;SDS011;47650;49.848;9.620;2023-08-06T10:25:31;1.80;;;1.10;;
61741;SDS011;47650;49.848;9.620;2023-08-06T10:27:58;1.23;;;1.00;;
61741;SDS011;47650;49.848;9.620;2023-08-06T10:30:28;1.08;;;1.08;;
61741;SDS011;47650;49.848;9.620;2023-08-06T10:33:04;0.95;;;0.95;;
61741;SDS011;47650;49.848;9.620;2023-08-06T10:35:48;0.90;;;0.90;;
61741;SDS011;47650;49.848;9.620;2023-08-06T10:38:19;1.65;;;1.40;;
61741;SDS011;47650;49.848;9.620;2023-08-06T10:43:25;2.15;;;2.05;;
61741;SDS011;47650;49.848;9.620;2023-08-06T10:45:58;2.38;;;2.17;;
61741;SDS011;47650;49.848;9.620;2023-08-06T10:48:34;2.20;;;2.10;;
61741;SDS011;47650;49.848;9.620;2023-08-06T10:51:07;1.25;;;1.00;;
61741;SDS011;47650;49.848;9.620;2023-08-06T10:53:37;1.15;;;1.15;;
61741;SDS011;47650;49.848;9.620;2023-08-06T10:56:11;1.30;;;1.10;;
61741;SDS011;47650;49.848;9.620;2023-08-06T10:58:39;1.27;;;0.90;;
61741;SDS011;47650;49.848;9.620;2023-08-06T11:01:04;0.70;;;0.70;;
61741;SDS011;47650;49.848;9.620;2023-08-06T11:03:30;2.00;;;0.75;;
61741;SDS011;47650;49.848;9.620;2023-08-06T11:05:58;2.22;;;1.00;;
61741;SDS011;47650;49.848;9.620;2023-08-06T11:08:26;1.10;;;0.90;;
61741;SDS011;47650;49.848;9.620;2023-08-06T11:10:55;1.20;;;1.20;;
61741;SDS011;47650;49.848;9.620;2023-08-06T11:13:21;1.50;;;1.40;;
61741;SDS011;47650;49.848;9.620;2023-08-06T11:15:46;1.40;;;1.30;;
61741;SDS011;47650;49.848;9.620;2023-08-06T11:18:12;1.25;;;1.20;;
61741;SDS011;47650;49.848;9.620;2023-08-06T11:20:38;1.23;;;1.02;;
61741;SDS011;47650;49.848;9.620;2023-08-06T11:23:04;1.00;;;1.00;;
61741;SDS011;47650;49.848;9.620;2023-08-06T11:25:29;1.10;;;1.10;;
61741;SDS011;47650;49.848;9.620;2023-08-06T11:27:55;1.60;;;1.50;;
61741;SDS011;47650;49.848;9.620;2023-08-06T11:30:20;1.20;;;1.20;;
61741;SDS011;47650;49.848;9.620;2023-08-06T11:32:47;0.80;;;0.80;;
61741;SDS011;47650;49.848;9.620;2023-08-06T11:35:13;1.15;;;1.10;;
61741;SDS011;47650;49.848;9.620;2023-08-06T11:37:47;1.55;;;1.42;;
61741;SDS011;47650;49.848;9.620;2023-08-06T11:40:14;0.80;;;0.80;;
61741;SDS011;47650;49.848;9.620;2023-08-06T11:42:41;0.70;;;0.70;;
61741;SDS011;47650;49.848;9.620;2023-08-06T11:45:07;1.40;;;1.40;;
61741;SDS011;47650;49.848;9.620;2023-08-06T11:47:34;0.88;;;0.88;;
61741;SDS011;47650;49.848;9.620;2023-08-06T11:50:04;0.98;;;0.90;;
61741;SDS011;47650;49.848;9.620;2023-08-06T11:52:31;0.90;;;0.90;;
61741;SDS011;47650;49.848;9.620;2023-08-06T11:55:00;0.80;;;0.80;;
61741;SDS011;47650;49.848;9.620;2023-08-06T11:57:29;3.15;;;0.90;;
61741;SDS011;47650;49.848;9.620;2023-08-06T12:00:02;0.85;;;0.85;;
61741;SDS011;47650;49.848;9.620;2023-08-06T12:02:31;0.98;;;0.98;;
61741;SDS011;47650;49.848;9.620;2023-08-06T12:07:55;1.20;;;1.10;;
61741;SDS011;47650;49.848;9.620;2023-08-06T12:10:27;0.70;;;0.70;;
61741;SDS011;47650;49.848;9.620;2023-08-06T12:12:53;0.68;;;0.68;;
61741;SDS011;47650;49.848;9.620;2023-08-06T12:15:20;0.73;;;0.73;;
61741;SDS011;47650;49.848;9.620;2023-08-06T12:17:47;0.85;;;0.70;;
61741;SDS011;47650;49.848;9.620;2023-08-06T12:20:13;0.80;;;0.80;;
61741;SDS011;47650;49.848;9.620;2023-08-06T12:22:38;1.05;;;1.05;;
61741;SDS011;47650;49.848;9.620;2023-08-06T12:25:06;0.77;;;0.63;;
61741;SDS011;47650;49.848;9.620;2023-08-06T12:27:33;0.82;;;0.80;;
61741;SDS011;47650;49.848;9.620;2023-08-06T12:30:03;0.90;;;0.80;;
61741;SDS011;47650;49.848;9.620;2023-08-06T12:32:29;35.35;;;2.00;;
61741;SDS011;47650;49.848;9.620;2023-08-06T12:34:55;91.45;;;5.03;;
61741;SDS011;47650;49.848;9.620;2023-08-06T12:37:20;25.45;;;2.67;;
61741;SDS011;47650;49.848;9.620;2023-08-06T12:39:46;4.07;;;1.98;;
61741;SDS011;47650;49.848;9.620;2023-08-06T12:42:11;2.45;;;1.55;;
61741;SDS011;47650;49.848;9.620;2023-08-06T12:44:37;1.40;;;1.27;;
61741;SDS011;47650;49.848;9.620;2023-08-06T12:47:02;1.45;;;1.27;;
61741;SDS011;47650;49.848;9.620;2023-08-06T12:49:28;0.80;;;0.80;;
61741;SDS011;47650;49.848;9.620;2023-08-06T12:51:54;5.40;;;1.05;;
61741;SDS011;47650;49.848;9.620;2023-08-06T12:54:21;3.85;;;1.00;;
61741;SDS011;47650;49.848;9.620;2023-08-06T12:56:47;1.52;;;0.80;;
61741;SDS011;47650;49.848;9.620;2023-08-06T12:59:13;1.20;;;1.10;;
61741;SDS011;47650;49.848;9.620;2023-08-06T13:01:42;0.80;;;0.80;;
61741;SDS011;47650;49.848;9.620;2023-08-06T13:04:08;0.80;;;0.80;;
61741;SDS011;47650;49.848;9.620;2023-08-06T13:06:33;0.90;;;0.90;;
61741;SDS011;47650;49.848;9.620;2023-08-06T13:09:03;0.82;;;0.82;;
61741;SDS011;47650;49.848;9.620;2023-08-06T13:11:29;1.17;;;0.75;;
61741;SDS011;47650;49.848;9.620;2023-08-06T13:13:56;0.75;;;0.75;;
61741;SDS011;47650;49.848;9.620;2023-08-06T13:16:32;2.63;;;2.42;;
61741;SDS011;47650;49.848;9.620;2023-08-06T13:18:59;1.30;;;1.30;;
61741;SDS011;47650;49.848;9.620;2023-08-06T13:21:24;1.40;;;1.10;;
61741;SDS011;47650;49.848;9.620;2023-08-06T13:23:56;1.00;;;1.00;;
61741;SDS011;47650;49.848;9.620;2023-08-06T13:26:21;0.75;;;0.68;;
61741;SDS011;47650;49.848;9.620;2023-08-06T13:28:46;0.75;;;0.70;;
61741;SDS011;47650;49.848;9.620;2023-08-06T13:31:12;0.68;;;0.68;;
61741;SDS011;47650;49.848;9.620;2023-08-06T13:33:38;1.02;;;0.82;;
61741;SDS011;47650;49.848;9.620;2023-08-06T13:36:03;0.85;;;0.60;;
61741;SDS011;47650;49.848;9.620;2023-08-06T13:38:28;0.68;;;0.68;;
61741;SDS011;47650;49.848;9.620;2023-08-06T13:40:54;1.88;;;1.35;;
61741;SDS011;47650;49.848;9.620;2023-08-06T13:43:19;0.80;;;0.80;;
61741;SDS011;47650;49.848;9.620;2023-08-06T13:45:44;0.70;;;0.70;;
61741;SDS011;47650;49.848;9.620;2023-08-06T13:48:09;0.80;;;0.65;;
61741;SDS011;47650;49.848;9.620;2023-08-06T13:50:35;1.30;;;0.80;;
61741;SDS011;47650;49.848;9.620;2023-08-06T13:53:01;1.17;;;0.88;;
61741;SDS011;47650;49.848;9.620;2023-08-06T13:55:27;0.75;;;0.75;;
61741;SDS011;47650;49.848;9.620;2023-08-06T13:57:52;0.80;;;0.80;;
61741;SDS011;47650;49.848;9.620;2023-08-06T14:00:17;1.85;;;0.70;;
61741;SDS011;47650;49.848;9.620;2023-08-06T14:02:44;2.15;;;0.85;;
61741;SDS011;47650;49.848;9.620;2023-08-06T14:05:12;1.70;;;0.82;;
61741;SDS011;47650;49.848;9.620;2023-08-06T14:07:38;1.08;;;0.73;;
61741;SDS011;47650;49.848;9.620;2023-08-06T14:10:04;7.82;;;4.22;;
61741;SDS011;47650;49.848;9.620;2023-08-06T14:12:30;1.20;;;1.10;;
61741;SDS011;47650;49.848;9.620;2023-08-06T14:14:56;1.35;;;0.95;;
61741;SDS011;47650;49.848;9.620;2023-08-06T14:17:21;2.88;;;2.30;;
61741;SDS011;47650;49.848;9.620;2023-08-06T14:19:46;2.35;;;1.20;;
61741;SDS011;47650;49.848;9.620;2023-08-06T14:22:12;1.20;;;1.10;;
61741;SDS011;47650;49.848;9.620;2023-08-06T14:24:37;1.63;;;1.10;;
61741;SDS011;47650;49.848;9.620;2023-08-06T14:27:02;2.28;;;1.15;;
61741;SDS011;47650;49.848;9.620;2023-08-06T14:29:29;2.40;;;1.30;;
61741;SDS011;47650;49.848;9.620;2023-08-06T14:31:54;1.85;;;1.75;;
61741;SDS011;47650;49.848;9.620;2023-08-06T14:34:21;0.80;;;0.80;;
61741;SDS011;47650;49.848;9.620;2023-08-06T14:36:46;0.80;;;0.80;;
61741;SDS011;47650;49.848;9.620;2023-08-06T14:39:11;0.90;;;0.90;;
61741;SDS011;47650;49.848;9.620;2023-08-06T14:41:37;1.00;;;1.00;;
61741;SDS011;47650;49.848;9.620;2023-08-06T14:44:02;1.23;;;1.13;;
61741;SDS011;47650;49.848;9.620;2023-08-06T14:46:27;1.42;;;1.33;;
61741;SDS011;47650;49.848;9.620;2023-08-06T14:48:53;0.93;;;0.93;;